KMRN/MRN METAR and TAF weather

Enter ICAO airport designator
Station Type Date Time Source
KMRN METAR 2020/02/22 07:15 UTC NOAA

KMRN 220715Z AUTO 00000KT 10SM CLR M05/M07 A3044 RMK AO2 T10551070


Station Type Date Time Source
KMRN Decoded METAR 2020/02/22 07:15 UTC NOAA

Morganton, Morganton-Lenoir Airport, NC, United States (KMRN) 35-49-17N 081-36-39W
Feb 22, 2020 - 02:15 AM EST / 2020.02.22 0715 UTC
Wind: Calm:0
Visibility: 10 mile(s):0
Sky conditions: clear
Temperature: 22.1 F (-5.5 C)
Dew Point: 19.4 F (-7.0 C)
Relative Humidity: 89%
Pressure (altimeter): 30.44 in. Hg (1030 hPa)
ob: KMRN 220715Z AUTO 00000KT 10SM CLR M05/M07 A3044 RMK AO2 T10551070
cycle: 7

Station Type Date Time Source
KMRN TAF UTC NOAA

Error!

Example: see airport list